createdAt,value
2018-12-20T08:47:16.846Z,55.90
2018-12-20T08:51:15.340Z,65.37
2018-12-20T08:56:24.012Z,63.83
2018-12-20T08:58:51.481Z,65.60
2018-12-20T09:01:18.987Z,64.27
2018-12-20T09:03:46.585Z,64.77
2018-12-20T09:06:14.064Z,61.50
2018-12-20T09:08:42.137Z,63.33
2018-12-20T09:11:09.613Z,62.37
2018-12-20T09:13:37.125Z,62.60
2018-12-20T09:16:04.921Z,60.23
2018-12-20T09:18:32.434Z,60.57
2018-12-20T09:20:59.896Z,60.40
2018-12-20T09:23:27.612Z,59.47
2018-12-20T09:25:55.098Z,59.10
2018-12-20T09:28:22.771Z,59.47
2018-12-20T09:30:50.588Z,59.77
2018-12-20T09:33:18.230Z,58.87
2018-12-20T09:35:46.280Z,57.83
2018-12-20T09:38:13.829Z,56.50
2018-12-20T09:40:41.779Z,61.47
2018-12-20T09:43:09.429Z,55.50
2018-12-20T09:45:37.048Z,58.40
2018-12-20T09:48:05.748Z,58.50
2018-12-20T09:50:34.928Z,62.30
2018-12-20T09:53:02.630Z,62.97
2018-12-20T09:55:30.502Z,59.33
2018-12-20T09:57:58.321Z,60.57
2018-12-20T10:00:26.320Z,59.00
2018-12-20T10:02:54.777Z,61.80
2018-12-20T10:05:23.673Z,62.33
2018-12-20T10:07:52.086Z,62.53
2018-12-20T10:10:20.629Z,64.90
2018-12-20T10:12:48.661Z,59.17
2018-12-20T10:15:16.763Z,62.47
2018-12-20T10:17:44.856Z,56.40
2018-12-20T10:20:17.372Z,56.77
2018-12-20T10:22:46.479Z,55.10
2018-12-20T10:25:15.387Z,56.50
2018-12-20T10:27:43.356Z,58.57
2018-12-20T10:30:12.636Z,58.67
2018-12-20T10:32:40.895Z,55.43
2018-12-20T10:35:13.171Z,55.77
2018-12-20T10:37:41.579Z,56.13
2018-12-20T10:40:11.544Z,53.03
2018-12-20T10:42:39.787Z,56.27
2018-12-20T10:45:08.867Z,55.20
2018-12-20T10:47:37.141Z,52.43
2018-12-20T10:50:06.237Z,55.63
2018-12-20T10:52:33.784Z,55.37
2018-12-20T10:55:01.730Z,55.07
2018-12-20T10:57:29.598Z,63.10
2018-12-20T10:59:57.334Z,62.37
2018-12-20T11:02:30.554Z,60.57
2018-12-20T11:05:01.602Z,64.63
2018-12-20T11:07:35.132Z,65.90
2018-12-20T11:10:08.898Z,64.57
2018-12-20T11:12:42.069Z,64.07
2018-12-20T11:15:09.968Z,63.57
2018-12-20T11:17:37.811Z,67.67
2018-12-20T11:20:05.783Z,67.77
2018-12-20T11:22:33.524Z,67.77
2018-12-20T11:25:01.210Z,67.80
2018-12-20T11:27:29.405Z,67.13
2018-12-20T11:29:57.408Z,62.90
2018-12-20T11:32:24.962Z,65.70
2018-12-20T11:34:52.598Z,66.47
2018-12-20T11:37:20.201Z,63.97
2018-12-20T11:39:47.680Z,68.57
2018-12-20T11:42:15.854Z,66.27
2018-12-20T11:44:43.416Z,66.93
2018-12-20T11:47:16.968Z,66.87
2018-12-20T11:49:45.024Z,69.17
2018-12-20T11:52:12.663Z,65.47
2018-12-20T11:54:40.224Z,63.93
2018-12-20T11:57:07.690Z,63.83
2018-12-20T11:59:35.232Z,64.57
2018-12-20T12:02:02.784Z,61.90
2018-12-20T12:04:30.268Z,58.63
2018-12-20T12:06:57.772Z,63.60
2018-12-20T12:09:25.332Z,62.77
2018-12-20T12:11:52.993Z,55.83
2018-12-20T12:14:20.538Z,57.87
2018-12-20T12:16:48.602Z,53.27
2018-12-20T12:19:16.105Z,47.23
2018-12-20T12:21:43.622Z,46.43
2018-12-20T12:24:11.132Z,43.03
2018-12-20T12:26:38.705Z,43.10
2018-12-20T12:29:06.509Z,40.17
2018-12-20T12:31:33.992Z,37.97
2018-12-20T12:34:02.097Z,37.47
2018-12-20T12:36:29.616Z,36.67
2018-12-20T12:38:57.662Z,41.70
2018-12-20T12:41:25.172Z,37.60
2018-12-20T12:43:52.735Z,37.03
2018-12-20T12:46:20.260Z,35.13
2018-12-20T12:48:47.859Z,35.93
2018-12-20T12:51:15.449Z,38.00
2018-12-20T12:53:43.075Z,31.03
2018-12-20T12:56:11.213Z,31.97
2018-12-20T12:58:38.866Z,34.13
2018-12-20T13:01:06.477Z,34.23
2018-12-20T13:03:34.352Z,37.73
2018-12-20T13:06:02.118Z,41.30
2018-12-20T13:08:29.724Z,33.20
2018-12-20T13:10:58.480Z,34.37
2018-12-20T13:13:26.179Z,30.77
2018-12-20T13:15:53.683Z,27.93
2018-12-20T13:18:21.212Z,28.40
2018-12-20T13:20:49.000Z,27.83
2018-12-20T13:23:16.556Z,28.63
2018-12-20T13:25:44.534Z,28.50
2018-12-20T13:28:12.029Z,26.90
2018-12-20T13:30:39.544Z,29.63
2018-12-20T13:33:07.389Z,27.27
2018-12-20T13:35:34.908Z,27.57
2018-12-20T13:38:02.689Z,27.90
2018-12-20T13:40:31.495Z,26.57
2018-12-20T13:42:59.301Z,25.27
2018-12-20T13:45:26.917Z,27.70
2018-12-20T13:47:54.821Z,28.37
2018-12-20T13:50:22.514Z,30.20
2018-12-20T13:52:50.216Z,31.23
2018-12-20T13:55:17.923Z,27.70
2018-12-20T13:57:45.551Z,28.93
2018-12-20T14:00:15.346Z,28.03
2018-12-20T14:02:43.621Z,30.23
2018-12-20T14:05:11.267Z,31.07
2018-12-20T14:07:39.296Z,30.07
2018-12-20T14:10:07.956Z,30.47
2018-12-20T14:12:35.497Z,30.00
2018-12-20T14:15:03.749Z,30.67
2018-12-20T14:17:31.344Z,32.33
2018-12-20T14:19:59.273Z,30.07
2018-12-20T14:22:26.954Z,28.60
2018-12-20T14:24:55.029Z,30.57
2018-12-20T14:27:22.788Z,31.30
2018-12-20T14:29:50.481Z,30.87
2018-12-20T14:32:19.093Z,33.60
2018-12-20T14:34:47.252Z,31.43
2018-12-20T14:37:14.871Z,35.63
2018-12-20T14:39:42.808Z,33.27
2018-12-20T14:42:10.416Z,33.40
2018-12-20T14:44:37.966Z,30.87
2018-12-20T14:47:05.562Z,29.00
2018-12-20T14:49:33.310Z,28.87
2018-12-20T14:52:00.902Z,27.37
2018-12-20T14:54:28.575Z,30.57
2018-12-20T14:56:56.169Z,27.03
2018-12-20T14:59:23.652Z,25.43
2018-12-20T15:01:51.557Z,27.17
2018-12-20T15:04:20.626Z,27.77
2018-12-20T15:06:48.546Z,27.13
2018-12-20T15:09:16.034Z,27.13
2018-12-20T15:11:43.721Z,26.10
2018-12-20T15:14:11.687Z,27.43
2018-12-20T15:16:39.224Z,29.50
2018-12-20T15:19:06.887Z,27.63
2018-12-20T15:21:34.534Z,28.77
2018-12-20T15:24:02.024Z,27.40
2018-12-20T15:26:29.892Z,25.10
2018-12-20T15:28:57.377Z,27.43
2018-12-20T15:31:25.085Z,27.07
2018-12-20T15:33:53.157Z,26.33
2018-12-20T15:36:20.827Z,26.53
2018-12-20T15:38:49.920Z,26.37
2018-12-20T15:41:18.338Z,26.03
2018-12-20T15:43:45.831Z,27.13
2018-12-20T15:46:13.747Z,25.67
2018-12-20T15:48:41.488Z,26.10
2018-12-20T15:51:08.977Z,28.70
2018-12-20T15:53:36.500Z,25.80
2018-12-20T15:56:04.049Z,23.40
2018-12-20T15:58:31.727Z,29.37
2018-12-20T16:00:59.230Z,28.40
2018-12-20T16:03:26.814Z,29.83
2018-12-20T16:05:54.408Z,27.57
2018-12-20T16:08:22.617Z,26.40
2018-12-20T16:10:50.854Z,29.97
2018-12-20T16:13:18.456Z,28.83
2018-12-20T16:15:45.945Z,27.63
2018-12-20T16:18:13.456Z,27.90
2018-12-20T16:20:40.943Z,27.10
2018-12-20T16:23:08.432Z,25.83
2018-12-20T16:25:35.925Z,27.50
2018-12-20T16:28:03.465Z,27.40
2018-12-20T16:30:31.271Z,29.23
2018-12-20T16:32:58.880Z,28.17
2018-12-20T16:35:26.367Z,30.77
2018-12-20T16:37:54.009Z,31.17
2018-12-20T16:40:21.536Z,29.53
2018-12-20T16:42:49.005Z,29.73
2018-12-20T16:45:16.604Z,28.33
2018-12-20T16:47:44.074Z,26.53
2018-12-20T16:50:11.588Z,29.13
2018-12-20T16:52:39.311Z,28.83
2018-12-20T16:55:07.587Z,30.37
2018-12-20T16:57:35.237Z,30.47
2018-12-20T17:00:03.813Z,32.10
2018-12-20T17:02:31.297Z,33.47
2018-12-20T17:04:58.827Z,31.27
2018-12-20T17:07:26.492Z,29.60
2018-12-20T17:09:53.964Z,30.47
2018-12-20T17:12:21.649Z,29.17
2018-12-20T17:14:49.233Z,28.37
2018-12-20T17:17:16.726Z,29.80
2018-12-20T17:19:44.365Z,30.10
2018-12-20T17:22:11.855Z,28.97
2018-12-20T17:24:39.613Z,29.33
2018-12-20T17:27:07.163Z,27.00
2018-12-20T17:29:34.653Z,27.67
2018-12-20T17:32:02.281Z,28.53
2018-12-20T17:34:29.959Z,28.67
2018-12-20T17:36:57.465Z,30.80
2018-12-20T17:39:24.993Z,28.47
2018-12-20T17:41:52.775Z,25.60
2018-12-20T17:44:20.349Z,30.77
2018-12-20T17:46:48.072Z,29.37
2018-12-20T17:49:15.617Z,29.90
2018-12-20T17:51:43.249Z,29.77
2018-12-20T17:54:11.369Z,30.07
2018-12-20T17:56:38.832Z,29.70
2018-12-20T17:59:06.458Z,30.67
2018-12-20T18:01:34.358Z,29.23
2018-12-20T18:04:01.814Z,34.33
2018-12-20T18:06:29.280Z,33.00
2018-12-20T18:08:56.791Z,31.53
2018-12-20T18:11:24.257Z,28.57
2018-12-20T18:13:51.807Z,29.67
2018-12-20T18:16:19.324Z,29.13
2018-12-20T18:18:46.790Z,27.40
2018-12-20T18:21:14.300Z,29.17
2018-12-20T18:23:42.000Z,28.67
2018-12-20T18:26:09.462Z,30.23
2018-12-20T18:28:36.993Z,29.20
2018-12-20T18:31:04.668Z,30.10
2018-12-20T18:33:32.169Z,31.43
2018-12-20T18:35:59.920Z,34.30
2018-12-20T18:38:27.410Z,32.27
2018-12-20T18:40:54.877Z,31.40
2018-12-20T18:43:22.411Z,29.43
2018-12-20T18:45:50.021Z,32.50
2018-12-20T18:48:17.516Z,30.70
2018-12-20T18:50:45.269Z,29.93
2018-12-20T18:53:12.878Z,29.57
2018-12-20T18:55:40.484Z,29.17
2018-12-20T18:58:08.243Z,30.07
2018-12-20T19:00:36.072Z,28.53
2018-12-20T19:03:03.725Z,29.20
2018-12-20T19:05:31.376Z,31.17
2018-12-20T19:07:58.964Z,31.07
2018-12-20T19:10:27.365Z,31.43
2018-12-20T19:12:54.865Z,31.70
2018-12-20T19:15:22.353Z,31.80
2018-12-20T19:17:50.000Z,31.73
2018-12-20T19:20:17.525Z,31.47
2018-12-20T19:22:45.100Z,32.33
2018-12-20T19:25:12.695Z,33.97
2018-12-20T19:27:40.233Z,33.63
2018-12-20T19:30:09.485Z,33.00
2018-12-20T19:32:37.236Z,31.97
2018-12-20T19:35:05.792Z,31.70
2018-12-20T19:37:33.360Z,32.37
2018-12-20T19:40:03.865Z,32.90
2018-12-20T19:42:31.521Z,34.73
2018-12-20T19:44:59.140Z,36.57
2018-12-20T19:47:26.748Z,35.97
2018-12-20T19:49:54.425Z,32.73
2018-12-20T19:52:21.929Z,35.90
2018-12-20T19:54:49.678Z,34.07
2018-12-20T19:57:17.312Z,34.17
2018-12-20T19:59:44.837Z,30.60
2018-12-20T20:02:12.366Z,30.87
2018-12-20T20:04:39.865Z,31.77
2018-12-20T20:07:07.617Z,33.10
2018-12-20T20:09:35.150Z,30.93
2018-12-20T20:12:02.805Z,31.70
2018-12-20T20:14:30.409Z,32.17
2018-12-20T20:16:57.926Z,31.10
2018-12-20T20:19:25.441Z,32.70
2018-12-20T20:21:53.043Z,30.67
2018-12-20T20:24:20.814Z,31.10
2018-12-20T20:26:48.366Z,32.43
2018-12-20T20:29:16.008Z,32.03
2018-12-20T20:31:43.747Z,32.90
2018-12-20T20:34:11.400Z,30.43
2018-12-20T20:36:39.158Z,30.73
2018-12-20T20:39:07.224Z,29.30
2018-12-20T20:41:35.253Z,30.03
2018-12-20T20:44:03.102Z,31.30
2018-12-20T20:46:30.694Z,31.60
2018-12-20T20:48:58.186Z,30.73
2018-12-20T20:51:25.916Z,31.43
2018-12-20T20:53:53.473Z,29.50
2018-12-20T20:56:21.055Z,29.37
2018-12-20T20:58:48.664Z,29.07
2018-12-20T21:01:16.156Z,29.67
2018-12-20T21:03:43.804Z,29.43
2018-12-20T21:06:11.323Z,30.00
2018-12-20T21:08:38.897Z,30.33
2018-12-20T21:11:06.571Z,31.33
2018-12-20T21:13:34.128Z,30.77
2018-12-20T21:16:01.926Z,29.17
2018-12-20T21:18:29.433Z,27.23
2018-12-20T21:20:56.949Z,29.20
2018-12-20T21:23:24.523Z,27.70
2018-12-20T21:25:52.148Z,28.77
2018-12-20T21:28:19.663Z,28.03
2018-12-20T21:30:47.436Z,29.00
2018-12-20T21:33:14.997Z,28.37
2018-12-20T21:35:42.629Z,28.93
2018-12-20T21:38:10.582Z,26.17
2018-12-20T21:40:38.325Z,27.30
2018-12-20T21:43:05.994Z,27.00
2018-12-20T21:45:33.517Z,27.50
2018-12-20T21:48:01.016Z,26.77
2018-12-20T21:50:28.532Z,25.70
2018-12-20T21:52:56.193Z,26.40
2018-12-20T21:55:23.998Z,28.50
2018-12-20T21:57:51.550Z,26.30
2018-12-20T22:00:19.150Z,27.87
2018-12-20T22:02:46.794Z,29.90
2018-12-20T22:05:14.289Z,27.60
2018-12-20T22:07:41.962Z,27.37
2018-12-20T22:10:09.560Z,28.17
2018-12-20T22:12:37.640Z,27.30
2018-12-20T22:15:05.780Z,30.80
2018-12-20T22:17:33.301Z,28.20
2018-12-20T22:20:00.856Z,29.77
2018-12-20T22:22:28.470Z,27.97
2018-12-20T22:24:56.285Z,29.27
2018-12-20T22:27:23.838Z,27.07
2018-12-20T22:29:51.440Z,27.00
2018-12-20T22:32:18.976Z,26.87
2018-12-20T22:34:46.758Z,26.73
2018-12-20T22:37:14.371Z,27.73
2018-12-20T22:39:41.905Z,27.60
2018-12-20T22:42:09.540Z,26.07
2018-12-20T22:44:37.230Z,26.97
2018-12-20T22:47:04.725Z,25.97
2018-12-20T22:49:32.456Z,27.30
2018-12-20T22:52:00.100Z,26.23
2018-12-20T22:54:27.688Z,24.70
2018-12-20T22:56:55.191Z,25.97
2018-12-20T22:59:22.696Z,25.73
2018-12-20T23:01:50.347Z,24.50
2018-12-20T23:04:17.917Z,24.67
2018-12-20T23:06:45.448Z,25.30
2018-12-20T23:09:13.087Z,23.87
2018-12-20T23:11:40.601Z,23.90
2018-12-20T23:14:08.265Z,22.67
2018-12-20T23:16:35.933Z,24.83
2018-12-20T23:19:03.538Z,23.50
2018-12-20T23:21:31.160Z,22.10
2018-12-20T23:23:58.781Z,22.03
2018-12-20T23:26:26.352Z,23.43
2018-12-20T23:28:53.932Z,23.00
2018-12-20T23:31:21.789Z,22.20
2018-12-20T23:33:49.505Z,21.27
2018-12-20T23:36:18.089Z,20.87
2018-12-20T23:38:45.669Z,22.67
2018-12-20T23:41:13.168Z,21.57
2018-12-20T23:43:40.736Z,22.47
2018-12-20T23:46:08.313Z,22.50
2018-12-20T23:48:35.806Z,22.00
2018-12-20T23:51:03.409Z,21.00
2018-12-20T23:53:31.145Z,22.43
2018-12-20T23:55:58.704Z,22.73
2018-12-20T23:58:26.274Z,21.83
